Time;durP1;ratioP1;P1;durP2;ratioP2;P2;SDS_P1;SDS_P2;PMS_P1;PMS_P2;Temp;Humidity;BMP_temperature;BMP_pressure;BME280_temperature;BME280_humidity;BME280_pressure;Samples;Min_cycle;Max_cycle;Signal;HPM_P1;HPM_P2
2021/07/22 00:00:37;;;;;;;7.67;5.40;;;19.40;99.90;;;;;;5013165;28;20192;-66
2021/07/22 00:03:02;;;;;;;6.23;5.63;;;19.30;99.90;;;;;;5014264;28;20206;-64
2021/07/22 00:05:28;;;;;;;7.07;6.10;;;19.30;99.90;;;;;;5014600;28;20187;-64
2021/07/22 00:07:59;;;;;;;8.70;7.17;;;19.30;99.90;;;;;;5014272;28;20175;-65
2021/07/22 00:10:25;;;;;;;9.10;8.20;;;19.30;99.90;;;;;;5014103;28;20585;-66
2021/07/22 00:12:50;;;;;;;9.40;8.50;;;19.30;99.90;;;;;;5014354;28;20732;-66
2021/07/22 00:15:16;;;;;;;11.70;9.20;;;20.60;99.90;;;;;;5014291;28;20572;-66
2021/07/22 00:17:41;;;;;;;11.23;9.30;;;19.20;99.90;;;;;;5013935;28;20211;-66
2021/07/22 00:20:08;;;;;;;10.00;9.00;;;19.10;99.90;;;;;;5014321;28;20182;-66
2021/07/22 00:22:37;;;;;;;10.13;8.37;;;19.10;99.90;;;;;;5013634;28;20534;-65
2021/07/22 00:25:07;;;;;;;9.27;8.30;;;19.00;99.90;;;;;;5014256;28;20178;-64
2021/07/22 00:27:34;;;;;;;9.40;8.17;;;19.00;99.90;;;;;;5013884;28;20579;-64
2021/07/22 00:29:59;;;;;;;9.77;7.83;;;19.00;99.90;;;;;;5013506;28;20199;-64
2021/07/22 00:32:25;;;;;;;8.20;7.40;;;18.90;99.90;;;;;;5016467;28;20595;-64
2021/07/22 00:34:50;;;;;;;12.07;7.57;;;18.90;99.90;;;;;;5020542;28;20179;-66
2021/07/22 00:37:16;;;;;;;8.87;7.97;;;18.80;99.90;;;;;;5020480;28;20172;-64
2021/07/22 00:39:41;;;;;;;9.23;8.33;;;18.80;99.90;;;;;;5020704;28;20185;-64
2021/07/22 00:42:07;;;;;;;10.13;7.93;;;18.80;99.90;;;;;;5005545;28;20198;-64
2021/07/22 00:44:33;;;;;;;7.67;6.87;;;18.80;99.90;;;;;;5008904;28;20195;-64
2021/07/22 00:46:58;;;;;;;9.60;6.97;;;18.70;99.90;;;;;;5010265;28;20201;-64
2021/07/22 00:49:24;;;;;;;7.27;6.53;;;18.70;99.90;;;;;;5007811;28;20211;-64
2021/07/22 00:51:49;;;;;;;6.20;5.60;;;18.70;99.90;;;;;;5009639;28;20205;-64
2021/07/22 00:54:15;;;;;;;6.83;5.60;;;18.70;99.90;;;;;;5010911;28;20207;-65
2021/07/22 00:56:41;;;;;;;7.87;5.60;;;19.20;99.90;;;;;;5009272;28;20572;-66
2021/07/22 00:59:06;;;;;;;8.17;5.83;;;18.80;99.90;;;;;;5002527;28;20661;-66
2021/07/22 01:01:32;;;;;;;6.40;5.80;;;18.70;99.90;;;;;;4999300;28;20185;-66
2021/07/22 01:03:58;;;;;;;6.63;5.40;;;18.70;99.90;;;;;;5000429;28;20198;-66
2021/07/22 01:06:23;;;;;;;6.23;5.40;;;18.70;99.90;;;;;;5008897;28;20208;-65
2021/07/22 01:08:49;;;;;;;7.17;6.30;;;18.70;99.90;;;;;;5020468;28;20193;-63
2021/07/22 01:11:14;;;;;;;9.33;6.53;;;18.70;99.90;;;;;;5020738;28;20186;-65
2021/07/22 01:13:40;;;;;;;8.67;7.17;;;18.70;99.90;;;;;;5020263;28;20285;-64
2021/07/22 01:16:06;;;;;;;9.07;7.97;;;18.70;99.90;;;;;;5020225;28;20248;-63
2021/07/22 01:18:33;;;;;;;9.80;8.80;;;18.70;99.90;;;;;;5019826;28;20206;-63
2021/07/22 01:20:58;;;;;;;10.37;9.27;;;18.60;99.90;;;;;;5019425;28;20536;-65
2021/07/22 01:23:24;;;;;;;10.00;8.87;;;18.60;99.90;;;;;;5017917;28;20190;-63
2021/07/22 01:25:51;;;;;;;8.63;7.73;;;18.50;99.90;;;;;;5019326;28;20630;-65
2021/07/22 01:28:17;;;;;;;8.83;7.70;;;18.50;99.90;;;;;;5020118;28;20183;-63
2021/07/22 01:30:42;;;;;;;7.87;7.07;;;18.50;99.90;;;;;;5018954;28;20175;-63
2021/07/22 01:33:08;;;;;;;8.30;6.80;;;18.40;99.90;;;;;;5019636;28;20215;-63
2021/07/22 01:35:33;;;;;;;7.97;7.17;;;18.40;99.90;;;;;;5019652;28;20183;-64
2021/07/22 01:37:59;;;;;;;7.77;6.83;;;18.40;99.90;;;;;;5019646;28;20176;-65
2021/07/22 01:40:24;;;;;;;8.80;7.50;;;18.40;99.90;;;;;;5019997;28;20177;-65
2021/07/22 01:42:50;;;;;;;9.57;8.57;;;18.40;99.90;;;;;;5019794;28;20717;-63
2021/07/22 01:45:15;;;;;;;10.47;8.87;;;18.40;99.90;;;;;;5015924;28;20631;-65
2021/07/22 01:47:41;;;;;;;10.77;9.67;;;18.40;99.90;;;;;;5016630;28;20259;-63
2021/07/22 01:50:09;;;;;;;11.07;9.80;;;18.40;99.90;;;;;;5016933;28;20518;-65
2021/07/22 01:52:35;;;;;;;9.13;8.23;;;18.40;99.90;;;;;;5016720;28;20287;-65
2021/07/22 01:55:00;;;;;;;9.03;8.13;;;18.40;99.90;;;;;;5016573;28;20277;-65
2021/07/22 01:57:26;;;;;;;8.63;7.50;;;18.30;99.90;;;;;;5016726;28;20642;-62
2021/07/22 01:59:52;;;;;;;9.20;8.27;;;18.30;99.90;;;;;;5015088;28;20191;-63
2021/07/22 02:02:18;;;;;;;10.07;8.77;;;18.30;99.90;;;;;;5016275;28;20197;-63
2021/07/22 02:04:44;;;;;;;10.00;8.50;;;18.30;99.90;;;;;;5016421;28;20176;-65
2021/07/22 02:07:10;;;;;;;8.80;7.93;;;18.30;99.90;;;;;;5016425;28;20672;-64
2021/07/22 02:09:37;;;;;;;9.43;8.40;;;18.50;99.90;;;;;;5016199;28;20244;-64
2021/07/22 02:12:02;;;;;;;10.80;9.43;;;18.20;99.90;;;;;;5015110;28;20172;-63
2021/07/22 02:14:28;;;;;;;11.37;9.13;;;18.20;99.90;;;;;;5016267;28;20526;-64
2021/07/22 02:16:53;;;;;;;10.07;8.87;;;18.10;99.90;;;;;;5016482;28;20180;-63
2021/07/22 02:19:19;;;;;;;9.23;8.33;;;18.20;99.90;;;;;;5016148;28;20579;-63
2021/07/22 02:21:45;;;;;;;8.77;7.87;;;18.20;99.90;;;;;;5015807;28;20185;-65
2021/07/22 02:24:12;;;;;;;9.13;7.67;;;18.10;99.90;;;;;;5016125;28;20194;-63
2021/07/22 02:26:38;;;;;;;7.70;6.90;;;18.10;99.90;;;;;;5015973;28;20322;-62
2021/07/22 02:29:05;;;;;;;7.33;6.30;;;18.10;99.90;;;;;;5016090;28;20248;-65
2021/07/22 02:31:30;;;;;;;9.37;6.63;;;18.10;99.90;;;;;;5015912;28;20185;-65
2021/07/22 02:33:56;;;;;;;8.50;7.60;;;18.00;99.90;;;;;;5015608;28;20208;-62
2021/07/22 02:36:21;;;;;;;8.17;7.27;;;18.00;99.90;;;;;;5015977;28;20177;-63
2021/07/22 02:38:47;;;;;;;9.90;8.90;;;18.00;99.90;;;;;;5015736;28;20185;-65
2021/07/22 02:41:13;;;;;;;11.40;10.20;;;18.00;99.90;;;;;;5015702;28;20236;-65
2021/07/22 02:43:40;;;;;;;12.23;10.93;;;17.90;99.90;;;;;;5015264;28;20287;-64
2021/07/22 02:46:10;;;;;;;14.50;12.10;;;17.90;99.90;;;;;;5015838;28;20241;-64
2021/07/22 02:48:36;;;;;;;10.60;9.60;;;17.90;99.90;;;;;;5015770;28;20169;-63
2021/07/22 02:51:03;;;;;;;8.97;7.10;;;17.80;99.90;;;;;;5015794;28;20173;-64
2021/07/22 02:53:28;;;;;;;9.37;7.00;;;17.90;99.90;;;;;;5015358;28;20199;-65
2021/07/22 02:55:59;;;;;;;6.90;6.07;;;17.80;99.90;;;;;;5015408;28;20181;-65
2021/07/22 02:58:24;;;;;;;9.03;6.30;;;17.70;99.90;;;;;;5015409;28;20223;-65
2021/07/22 03:00:50;;;;;;;8.90;6.23;;;17.70;99.90;;;;;;5015554;28;20212;-64
2021/07/22 03:03:15;;;;;;;6.80;6.17;;;17.60;99.90;;;;;;5015102;28;20199;-65
2021/07/22 03:05:41;;;;;;;7.33;6.03;;;17.50;99.90;;;;;;5015324;28;20173;-65
2021/07/22 03:08:06;;;;;;;6.83;6.00;;;17.50;99.90;;;;;;5015153;28;20275;-64
2021/07/22 03:10:32;;;;;;;6.90;6.20;;;17.50;99.90;;;;;;5015432;28;20222;-65
2021/07/22 03:12:58;;;;;;;8.87;6.33;;;17.50;99.90;;;;;;5015155;28;20196;-63
2021/07/22 03:15:23;;;;;;;6.80;6.10;;;17.40;99.90;;;;;;5015014;28;20181;-65
2021/07/22 03:17:49;;;;;;;7.10;6.40;;;17.40;99.90;;;;;;5015145;28;20180;-65
2021/07/22 03:20:15;;;;;;;7.00;6.33;;;17.40;99.90;;;;;;5014993;28;20199;-63
2021/07/22 03:22:40;;;;;;;6.83;6.13;;;17.30;99.90;;;;;;5014860;28;20541;-65
2021/07/22 03:25:07;;;;;;;7.13;6.10;;;17.20;99.90;;;;;;5014865;28;20267;-64
2021/07/22 03:27:32;;;;;;;8.03;6.40;;;17.20;99.90;;;;;;5014997;28;20204;-62
2021/07/22 03:29:58;;;;;;;7.40;6.67;;;17.10;99.90;;;;;;5014804;28;20181;-63
2021/07/22 03:32:23;;;;;;;6.37;5.77;;;17.00;99.90;;;;;;5014782;28;20179;-65
2021/07/22 03:34:49;;;;;;;6.80;6.00;;;17.00;99.90;;;;;;5014944;28;20562;-63
2021/07/22 03:37:15;;;;;;;6.87;6.17;;;17.00;99.90;;;;;;5014601;28;20173;-62
2021/07/22 03:39:40;;;;;;;7.23;6.27;;;17.00;99.90;;;;;;5014872;28;20222;-62
2021/07/22 03:42:06;;;;;;;8.37;6.50;;;17.00;99.90;;;;;;5013294;28;20215;-63
2021/07/22 03:44:33;;;;;;;8.33;6.37;;;17.00;99.90;;;;;;5014693;28;20197;-65
2021/07/22 03:46:58;;;;;;;7.50;6.73;;;16.90;99.90;;;;;;5014372;28;20716;-65
2021/07/22 03:49:24;;;;;;;7.40;6.60;;;16.90;99.90;;;;;;5014452;28;20188;-60
2021/07/22 03:51:54;;;;;;;7.30;6.50;;;17.00;99.90;;;;;;5014546;28;20203;-62
2021/07/22 03:54:20;;;;;;;7.17;6.37;;;17.00;99.90;;;;;;5014593;28;20189;-62
2021/07/22 03:56:45;;;;;;;7.00;6.30;;;17.00;99.90;;;;;;5014331;28;20187;-63
2021/07/22 03:59:11;;;;;;;8.07;6.23;;;16.90;99.90;;;;;;5014590;28;20177;-65
2021/07/22 04:01:36;;;;;;;6.63;5.97;;;17.00;99.90;;;;;;5013920;28;20192;-65
2021/07/22 04:04:02;;;;;;;7.33;5.60;;;17.00;99.90;;;;;;5014380;28;20591;-65
2021/07/22 04:06:27;;;;;;;6.90;6.00;;;17.00;99.90;;;;;;5013910;28;20250;-61
2021/07/22 04:08:53;;;;;;;7.67;6.80;;;17.10;99.90;;;;;;5013843;28;20783;-61
2021/07/22 04:11:19;;;;;;;8.40;6.17;;;17.00;99.90;;;;;;5014282;28;20618;-61
2021/07/22 04:13:44;;;;;;;7.80;6.70;;;17.00;99.90;;;;;;5013872;28;20331;-63
2021/07/22 04:16:10;;;;;;;6.87;6.20;;;17.10;99.90;;;;;;5014246;28;20200;-63
2021/07/22 04:18:35;;;;;;;7.03;6.30;;;17.80;99.90;;;;;;5014133;28;20255;-64
2021/07/22 04:21:02;;;;;;;6.93;6.00;;;17.10;99.90;;;;;;5014125;28;20173;-65
2021/07/22 04:23:27;;;;;;;7.80;6.03;;;17.10;99.90;;;;;;5013659;28;20692;-63
2021/07/22 04:25:53;;;;;;;6.53;5.90;;;17.20;99.90;;;;;;5014040;28;20195;-63
2021/07/22 04:28:18;;;;;;;6.50;5.80;;;17.20;99.90;;;;;;5014062;28;20226;-65
2021/07/22 04:30:44;;;;;;;6.83;5.87;;;17.20;99.90;;;;;;5014094;28;20177;-65
2021/07/22 04:33:09;;;;;;;7.33;5.80;;;17.30;99.90;;;;;;5013791;28;20196;-65
2021/07/22 04:35:35;;;;;;;7.03;5.93;;;17.30;99.90;;;;;;5014148;28;20176;-63
2021/07/22 04:38:01;;;;;;;6.47;5.77;;;17.40;99.90;;;;;;5013751;28;20246;-66
2021/07/22 04:40:26;;;;;;;6.30;5.50;;;17.50;99.90;;;;;;5014051;28;20180;-61
2021/07/22 04:42:52;;;;;;;6.40;5.80;;;17.50;99.90;;;;;;5012234;28;20690;-65
2021/07/22 04:45:17;;;;;;;7.17;6.30;;;17.60;99.90;;;;;;5013746;28;20180;-65
2021/07/22 04:47:43;;;;;;;7.97;6.40;;;17.60;99.90;;;;;;5014016;28;20200;-63
2021/07/22 04:50:09;;;;;;;8.47;7.67;;;17.70;99.90;;;;;;5013756;28;20713;-65
2021/07/22 04:52:35;;;;;;;12.83;10.00;;;17.70;99.90;;;;;;5013830;28;20192;-65
2021/07/22 04:55:00;;;;;;;12.43;10.30;;;17.70;99.90;;;;;;5013501;28;20223;-63
2021/07/22 04:57:26;;;;;;;8.77;7.87;;;17.70;99.90;;;;;;5013964;28;20187;-65
2021/07/22 04:59:51;;;;;;;9.50;8.40;;;17.80;99.90;;;;;;5013576;28;20642;-64
2021/07/22 05:02:19;;;;;;;9.37;8.37;;;17.70;99.90;;;;;;5013710;28;20183;-65
2021/07/22 05:04:45;;;;;;;9.47;8.00;;;17.80;99.90;;;;;;5013878;28;20173;-65
2021/07/22 05:07:11;;;;;;;7.30;6.57;;;17.90;99.90;;;;;;5013797;28;20208;-63
2021/07/22 05:09:36;;;;;;;7.07;6.37;;;18.00;99.90;;;;;;5013631;28;20239;-63
2021/07/22 05:12:02;;;;;;;7.37;6.57;;;18.10;99.90;;;;;;5013167;28;20513;-64
2021/07/22 05:14:27;;;;;;;7.03;6.33;;;18.10;99.90;;;;;;5013042;28;20197;-63
2021/07/22 05:16:53;;;;;;;8.93;6.20;;;18.10;99.90;;;;;;5013523;28;20178;-63
2021/07/22 05:19:18;;;;;;;7.53;6.67;;;18.10;99.90;;;;;;5016241;28;20182;-63
2021/07/22 05:21:44;;;;;;;8.00;6.70;;;18.20;99.90;;;;;;5017373;28;20174;-65
2021/07/22 05:24:10;;;;;;;8.20;6.57;;;18.30;99.90;;;;;;5017255;28;20198;-65
2021/07/22 05:26:38;;;;;;;8.57;7.33;;;18.30;99.90;;;;;;5016989;28;20229;-65
2021/07/22 05:29:04;;;;;;;8.90;7.27;;;18.50;99.90;;;;;;5017100;28;20181;-63
2021/07/22 05:31:29;;;;;;;7.00;6.30;;;18.60;99.90;;;;;;5017291;28;20186;-64
2021/07/22 05:33:55;;;;;;;9.70;7.17;;;18.70;99.90;;;;;;5017195;28;20201;-62
2021/07/22 05:36:20;;;;;;;7.93;6.90;;;18.80;99.90;;;;;;5017075;28;20182;-65
2021/07/22 05:38:46;;;;;;;8.63;7.73;;;18.90;99.90;;;;;;5017166;28;20176;-65
2021/07/22 05:41:12;;;;;;;10.33;9.33;;;19.00;99.90;;;;;;5017197;28;20320;-63
2021/07/22 05:43:38;;;;;;;11.10;9.90;;;19.20;99.90;;;;;;5016557;28;20585;-65
2021/07/22 05:46:03;;;;;;;10.83;9.70;;;19.20;99.90;;;;;;5016961;28;20246;-63
2021/07/22 05:48:29;;;;;;;8.80;8.00;;;19.20;99.90;;;;;;5016821;28;20177;-65
2021/07/22 05:50:59;;;;;;;9.60;8.60;;;19.20;99.90;;;;;;5016922;28;20259;-65
2021/07/22 05:53:25;;;;;;;9.57;8.67;;;19.30;99.90;;;;;;5016795;28;20205;-63
2021/07/22 05:55:50;;;;;;;9.33;7.20;;;19.30;99.90;;;;;;5016849;28;20219;-63
2021/07/22 05:58:15;;;;;;;8.50;7.57;;;19.40;99.90;;;;;;5016409;28;20231;-64
2021/07/22 06:00:41;;;;;;;7.30;6.60;;;19.40;99.90;;;;;;5016496;28;20164;-65
2021/07/22 06:03:07;;;;;;;7.87;5.60;;;19.40;99.90;;;;;;5016326;28;20522;-65
2021/07/22 06:05:33;;;;;;;6.07;5.47;;;19.40;99.90;;;;;;5003948;28;20649;-63
2021/07/22 06:08:03;;;;;;;6.33;5.70;;;19.40;99.90;;;;;;4993773;28;20200;-64
2021/07/22 06:10:29;;;;;;;6.70;6.00;;;19.40;99.90;;;;;;4991892;28;20193;-65
2021/07/22 06:12:55;;;;;;;6.57;5.90;;;19.60;99.90;;;;;;5016353;28;20220;-64
2021/07/22 06:15:22;;;;;;;6.60;6.00;;;19.70;99.90;;;;;;5008268;28;20177;-64
2021/07/22 06:17:48;;;;;;;6.60;5.90;;;19.90;99.90;;;;;;5016786;28;20181;-63
2021/07/22 06:20:13;;;;;;;6.50;5.90;;;19.90;99.90;;;;;;5015971;28;20195;-63
2021/07/22 06:22:39;;;;;;;6.67;5.63;;;19.80;99.90;;;;;;5016015;28;20203;-64
2021/07/22 06:25:05;;;;;;;5.43;4.93;;;19.80;99.90;;;;;;5016272;28;20194;-63
2021/07/22 06:27:31;;;;;;;5.73;5.17;;;19.90;99.90;;;;;;5002437;28;20205;-63
2021/07/22 06:30:00;;;;;;;5.70;5.07;;;19.90;99.90;;;;;;4995599;28;20272;-65
2021/07/22 06:32:26;;;;;;;7.97;4.87;;;20.00;99.90;;;;;;4996648;28;20228;-63
2021/07/22 06:34:52;;;;;;;6.80;5.00;;;20.00;99.90;;;;;;4996804;28;20177;-63
2021/07/22 06:37:17;;;;;;;5.50;4.87;;;20.10;99.90;;;;;;4996464;28;20641;-65
2021/07/22 06:39:43;;;;;;;4.90;4.40;;;20.10;99.90;;;;;;4996989;28;20554;-64
2021/07/22 06:42:09;;;;;;;6.10;5.10;;;20.20;99.90;;;;;;4995914;28;20208;-65
2021/07/22 06:44:34;;;;;;;6.90;4.73;;;20.30;99.90;;;;;;4997367;28;20193;-65
2021/07/22 06:47:00;;;;;;;5.43;4.93;;;20.40;99.90;;;;;;5015463;28;20216;-64
2021/07/22 06:49:26;;;;;;;7.33;5.60;;;20.50;99.90;;;;;;5015903;28;20169;-63
2021/07/22 06:51:52;;;;;;;6.17;5.30;;;20.80;99.90;;;;;;5015470;28;20211;-65
2021/07/22 06:54:18;;;;;;;5.60;5.00;;;20.80;99.90;;;;;;5004148;28;20193;-63
2021/07/22 06:56:44;;;;;;;6.67;4.67;;;20.90;99.90;;;;;;4995824;28;20264;-62
2021/07/22 06:59:09;;;;;;;6.20;5.10;;;21.00;99.90;;;;;;4986946;28;20271;-64
2021/07/22 07:01:35;;;;;;;4.73;4.07;;;21.20;99.90;;;;;;4984322;28;20236;-65
2021/07/22 07:04:03;;;;;;;4.93;4.43;;;21.40;99.90;;;;;;4997457;28;20276;-60
2021/07/22 07:06:29;;;;;;;5.17;4.50;;;21.30;99.90;;;;;;5001871;28;20204;-59
2021/07/22 07:08:55;;;;;;;6.60;5.00;;;21.00;99.90;;;;;;4995548;28;20181;-64
2021/07/22 07:11:21;;;;;;;4.83;4.37;;;20.80;99.90;;;;;;4995622;28;20566;-63
2021/07/22 07:13:46;;;;;;;5.05;4.55;;;20.90;99.90;;;;;;4995026;28;20232;-64
2021/07/22 07:16:12;;;;;;;5.65;4.25;;;21.00;99.90;;;;;;4995853;28;20206;-64
2021/07/22 07:18:37;;;;;;;5.30;4.80;;;21.10;99.90;;;;;;4995325;28;20255;-60
2021/07/22 07:21:04;;;;;;;6.35;4.53;;;21.00;99.90;;;;;;4995634;28;20197;-59
2021/07/22 07:23:30;;;;;;;4.70;4.27;;;20.60;99.90;;;;;;4995077;28;20213;-62
2021/07/22 07:25:55;;;;;;;4.73;4.20;;;20.60;99.90;;;;;;4995277;28;20618;-58
2021/07/22 07:28:21;;;;;;;7.82;4.70;;;20.70;99.90;;;;;;4994839;28;20166;-62
2021/07/22 07:30:46;;;;;;;5.50;4.53;;;20.70;99.90;;;;;;4995316;28;20181;-57
2021/07/22 07:33:12;;;;;;;5.77;4.50;;;21.00;99.90;;;;;;4994809;28;20209;-64
2021/07/22 07:35:39;;;;;;;5.75;4.85;;;21.20;99.90;;;;;;4995503;28;20252;-57
2021/07/22 07:38:05;;;;;;;5.20;4.27;;;21.10;99.90;;;;;;4995155;28;20261;-63
2021/07/22 07:40:30;;;;;;;5.18;4.50;;;20.80;99.90;;;;;;4995282;28;20216;-65
2021/07/22 07:42:56;;;;;;;5.68;4.65;;;21.00;99.90;;;;;;4994022;28;20201;-60
2021/07/22 07:45:21;;;;;;;5.00;4.50;;;21.40;99.90;;;;;;4995116;28;20174;-62
2021/07/22 07:47:47;;;;;;;6.40;4.20;;;21.50;99.90;;;;;;4995121;28;20201;-61
2021/07/22 07:50:12;;;;;;;5.00;4.50;;;21.50;99.90;;;;;;4994957;28;20670;-59
2021/07/22 07:52:39;;;;;;;5.90;4.53;;;21.60;99.90;;;;;;4994722;28;20293;-62
2021/07/22 07:55:06;;;;;;;5.03;4.15;;;21.70;99.90;;;;;;4994929;28;20171;-65
2021/07/22 07:57:32;;;;;;;4.72;4.30;;;21.90;99.90;;;;;;4995053;28;20249;-64
2021/07/22 07:59:58;;;;;;;4.97;4.50;;;22.10;99.90;;;;;;4994939;28;20168;-65
2021/07/22 08:02:24;;;;;;;6.07;4.20;;;22.20;99.90;;;;;;4994577;28;20189;-58
2021/07/22 08:04:49;;;;;;;4.93;4.50;;;22.20;99.90;;;;;;4994375;28;20183;-61
2021/07/22 08:07:15;;;;;;;5.18;4.68;;;22.30;99.90;;;;;;4995098;28;20238;-63
2021/07/22 08:09:40;;;;;;;5.05;4.55;;;22.30;99.90;;;;;;4994280;28;20275;-62
2021/07/22 08:12:06;;;;;;;5.20;4.70;;;22.50;99.90;;;;;;4994740;28;20184;-62
2021/07/22 08:14:39;;;;;;;4.90;4.40;;;22.80;99.90;;;;;;4994463;28;20197;-65
2021/07/22 08:17:05;;;;;;;4.57;3.97;;;22.80;99.90;;;;;;4995172;28;20173;-62
2021/07/22 08:19:31;;;;;;;6.40;4.72;;;22.80;99.90;;;;;;4994591;28;20252;-60
2021/07/22 08:21:57;;;;;;;4.93;4.25;;;22.90;99.90;;;;;;4993995;28;20196;-61
2021/07/22 08:24:22;;;;;;;8.13;4.90;;;22.90;99.90;;;;;;4994477;28;20201;-62
2021/07/22 08:26:48;;;;;;;7.20;4.30;;;23.00;99.90;;;;;;4994382;28;20209;-59
2021/07/22 08:29:13;;;;;;;5.40;4.20;;;23.20;99.90;;;;;;4994954;28;20169;-62
2021/07/22 08:31:39;;;;;;;6.57;4.65;;;23.30;99.90;;;;;;4994260;28;20180;-62
2021/07/22 08:34:05;;;;;;;4.75;4.20;;;23.40;99.90;;;;;;4994771;28;20189;-62
2021/07/22 08:36:30;;;;;;;5.53;4.25;;;23.40;99.90;;;;;;4995274;28;20618;-61
2021/07/22 08:38:56;;;;;;;4.82;4.35;;;23.40;99.90;;;;;;4995058;28;20288;-66
2021/07/22 08:41:21;;;;;;;4.95;4.50;;;23.30;99.90;;;;;;4994380;28;20208;-61
2021/07/22 08:43:50;;;;;;;4.95;4.28;;;23.30;99.90;;;;;;4994206;28;20557;-62
2021/07/22 08:46:16;;;;;;;4.78;4.10;;;23.30;99.90;;;;;;4994441;28;20675;-62
2021/07/22 08:48:43;;;;;;;4.65;4.25;;;23.10;99.90;;;;;;4996445;28;20560;-62
2021/07/22 08:51:08;;;;;;;4.93;4.20;;;23.40;99.90;;;;;;4994039;28;20200;-64
2021/07/22 08:53:34;;;;;;;4.55;4.15;;;23.50;99.90;;;;;;4994988;28;20205;-62
2021/07/22 08:56:01;;;;;;;6.70;4.07;;;23.40;99.90;;;;;;4999891;28;20181;-59
2021/07/22 08:58:28;;;;;;;5.85;4.30;;;23.70;99.90;;;;;;4998091;28;20177;-66
2021/07/22 09:00:55;;;;;;;4.53;4.13;;;23.90;99.90;;;;;;4999156;28;20228;-63
2021/07/22 09:03:21;;;;;;;5.20;4.70;;;24.10;99.90;;;;;;4998300;28;20247;-63
2021/07/22 09:05:47;;;;;;;4.80;4.07;;;24.00;99.90;;;;;;4998513;28;20169;-66
2021/07/22 09:08:13;;;;;;;5.15;4.65;;;23.90;99.90;;;;;;4997941;28;20699;-65
2021/07/22 09:10:39;;;;;;;4.47;4.07;;;24.10;99.90;;;;;;4997768;28;20201;-64
2021/07/22 09:13:05;;;;;;;5.80;4.40;;;24.10;99.90;;;;;;4999440;28;20531;-61
2021/07/22 09:15:35;;;;;;;5.15;4.65;;;24.30;99.90;;;;;;4997966;28;20576;-66
2021/07/22 09:18:20;;;;;;;5.03;4.53;;;24.30;99.90;;;;;;4998731;28;20182;-62
2021/07/22 09:20:45;;;;;;;5.75;4.35;;;24.60;99.90;;;;;;4997534;28;20169;-62
2021/07/22 09:23:18;;;;;;;5.35;4.72;;;24.80;99.90;;;;;;4997730;28;20197;-62
2021/07/22 09:25:46;;;;;;;4.95;4.47;;;24.70;99.90;;;;;;4998265;28;20272;-63
2021/07/22 09:28:25;;;;;;;4.65;4.25;;;24.90;99.90;;;;;;4995797;28;20665;-64
2021/07/22 09:31:05;;;;;;;5.15;4.65;;;24.90;99.90;;;;;;4998973;28;20181;-65
2021/07/22 09:33:41;;;;;;;5.10;4.70;;;25.20;99.90;;;;;;5005070;28;20192;-61
2021/07/22 09:36:27;;;;;;;5.85;4.65;;;24.90;99.90;;;;;;4997265;28;20207;-63
2021/07/22 09:38:53;;;;;;;5.10;4.60;;;24.70;99.90;;;;;;4987377;28;20216;-64
2021/07/22 09:41:23;;;;;;;5.05;4.55;;;25.10;99.90;;;;;;4997657;28;20189;-61
2021/07/22 09:43:50;;;;;;;4.80;4.40;;;25.40;99.90;;;;;;4997359;28;20251;-62
2021/07/22 09:46:15;;;;;;;5.00;4.50;;;25.70;99.90;;;;;;4998319;28;20227;-65
2021/07/22 09:49:08;;;;;;;5.15;4.50;;;25.90;99.90;;;;;;4997598;28;20197;-62
2021/07/22 09:51:34;;;;;;;5.22;4.35;;;26.10;99.90;;;;;;4990129;28;20581;-63
2021/07/22 09:54:07;;;;;;;6.28;4.95;;;26.30;99.90;;;;;;4997527;28;20673;-66
2021/07/22 09:56:40;;;;;;;6.22;4.88;;;26.40;99.40;;;;;;4997651;28;20248;-61
2021/07/22 09:59:08;;;;;;;5.40;4.90;;;26.10;99.90;;;;;;4994800;28;20244;-64
2021/07/22 10:01:41;;;;;;;6.55;5.18;;;25.90;99.90;;;;;;4996907;28;20192;-63
2021/07/22 10:04:09;;;;;;;5.82;5.18;;;26.00;99.90;;;;;;4996829;28;20201;-62
2021/07/22 10:06:35;;;;;;;5.50;4.97;;;26.10;99.90;;;;;;4996772;28;20200;-62
2021/07/22 10:09:02;;;;;;;5.70;5.20;;;26.50;99.90;;;;;;4996760;28;20996;-65
2021/07/22 10:11:28;;;;;;;5.40;4.90;;;27.10;99.90;;;;;;4994755;28;20187;-62
2021/07/22 10:13:54;;;;;;;5.47;5.00;;;27.40;99.90;;;;;;4994604;28;20671;-63
2021/07/22 10:16:22;;;;;;;6.55;5.35;;;27.90;99.90;;;;;;4996326;28;20200;-63
2021/07/22 10:18:49;;;;;;;5.45;4.95;;;28.20;99.90;;;;;;4996224;28;20268;-63
2021/07/22 10:21:16;;;;;;;6.75;4.97;;;28.30;99.20;;;;;;4996094;28;20181;-66
2021/07/22 10:23:43;;;;;;;5.10;4.63;;;28.60;99.00;;;;;;4996128;28;20339;-62
2021/07/22 10:26:09;;;;;;;6.18;4.80;;;28.80;97.00;;;;;;4996118;28;20474;-66
2021/07/22 10:28:35;;;;;;;6.05;5.45;;;28.90;96.60;;;;;;4997690;28;20177;-63
2021/07/22 10:31:05;;;;;;;6.13;5.63;;;28.50;95.40;;;;;;5002727;28;20173;-64
2021/07/22 10:33:34;;;;;;;5.68;5.18;;;28.50;96.90;;;;;;4999783;28;20728;-64
2021/07/22 10:36:00;;;;;;;5.68;5.07;;;28.70;98.30;;;;;;4994114;28;20185;-63
2021/07/22 10:38:42;;;;;;;5.50;5.00;;;28.70;95.10;;;;;;4995689;28;20172;-61
2021/07/22 10:41:08;;;;;;;5.80;5.18;;;28.60;98.70;;;;;;5002729;28;20283;-65
2021/07/22 10:43:43;;;;;;;5.60;5.10;;;28.70;98.50;;;;;;5002135;28;20268;-65
2021/07/22 10:46:16;;;;;;;5.45;5.00;;;28.70;96.60;;;;;;5002118;28;20235;-62
2021/07/22 10:48:46;;;;;;;5.85;5.25;;;28.90;98.90;;;;;;5000998;28;20176;-63
2021/07/22 10:51:21;;;;;;;5.03;4.63;;;29.00;97.40;;;;;;5004766;28;20179;-62
2021/07/22 10:53:48;;;;;;;7.80;4.90;;;28.90;96.70;;;;;;5002884;28;20199;-63
2021/07/22 10:56:24;;;;;;;6.68;5.30;;;28.60;95.40;;;;;;4998391;28;20181;-62
2021/07/22 10:58:55;;;;;;;6.30;5.72;;;28.20;95.00;;;;;;4995642;28;20200;-66
2021/07/22 11:01:39;;;;;;;6.15;5.20;;;27.90;94.50;;;;;;4994550;28;20281;-65
2021/07/22 11:04:05;;;;;;;9.57;5.32;;;27.60;96.40;;;;;;4994150;28;20205;-64
2021/07/22 11:07:00;;;;;;;6.10;5.45;;;27.20;95.00;;;;;;4993211;28;20216;-66
2021/07/22 11:09:47;;;;;;;5.68;5.13;;;26.90;95.40;;;;;;4995652;28;20177;-63
2021/07/22 11:12:45;;;;;;;6.85;5.32;;;27.10;95.60;;;;;;4995510;28;20173;-63
2021/07/22 11:15:18;;;;;;;5.32;4.82;;;27.30;96.20;;;;;;4995886;28;20656;-65
2021/07/22 11:17:45;;;;;;;5.57;4.90;;;27.60;97.30;;;;;;4995283;28;20174;-63
2021/07/22 11:20:20;;;;;;;5.25;4.78;;;27.70;96.30;;;;;;4995479;28;20181;-64
2021/07/22 11:22:50;;;;;;;5.90;5.03;;;28.10;97.20;;;;;;4995227;28;20669;-64
2021/07/22 11:25:17;;;;;;;5.68;5.13;;;28.40;97.90;;;;;;4995405;28;20181;-65
2021/07/22 11:27:51;;;;;;;6.68;5.28;;;28.60;96.70;;;;;;4995768;28;20201;-66
2021/07/22 11:30:19;;;;;;;5.57;5.10;;;28.70;96.50;;;;;;4995377;28;20264;-65
2021/07/22 11:32:45;;;;;;;5.40;4.93;;;28.50;98.60;;;;;;4994779;28;20555;-65
2021/07/22 11:35:11;;;;;;;5.07;4.60;;;28.70;97.90;;;;;;4995177;28;20177;-63
2021/07/22 11:37:38;;;;;;;5.40;4.90;;;29.00;95.80;;;;;;4995242;28;20204;-66
2021/07/22 11:40:11;;;;;;;4.80;4.40;;;29.10;96.90;;;;;;4995094;28;20278;-64
2021/07/22 11:42:47;;;;;;;5.10;4.60;;;29.50;96.20;;;;;;4995193;28;20340;-63
2021/07/22 11:45:13;;;;;;;5.15;4.65;;;29.70;93.70;;;;;;4995011;28;20173;-63
2021/07/22 11:47:39;;;;;;;6.20;4.63;;;29.80;95.00;;;;;;4995113;28;20213;-66
2021/07/22 11:50:05;;;;;;;4.72;4.32;;;29.70;93.70;;;;;;4995164;28;20180;-63
2021/07/22 11:52:30;;;;;;;5.40;4.90;;;29.70;92.40;;;;;;4994493;28;20650;-63
2021/07/22 11:55:09;;;;;;;5.55;4.22;;;29.40;91.70;;;;;;4995027;28;20189;-66
2021/07/22 11:57:42;;;;;;;5.18;4.68;;;29.30;94.20;;;;;;4995003;28;20173;-64
2021/07/22 12:00:19;;;;;;;9.07;5.10;;;29.20;93.10;;;;;;4993923;28;20181;-66
2021/07/22 12:02:51;;;;;;;5.13;4.63;;;28.90;91.80;;;;;;4994591;28;20200;-62
2021/07/22 12:05:23;;;;;;;4.72;4.32;;;28.90;91.90;;;;;;4994852;28;20530;-61
2021/07/22 12:07:49;;;;;;;4.90;4.50;;;28.70;95.70;;;;;;4994758;28;20211;-66
2021/07/22 12:10:27;;;;;;;7.22;4.55;;;28.50;94.00;;;;;;4993151;28;20193;-65
2021/07/22 12:12:57;;;;;;;5.90;4.47;;;28.30;93.60;;;;;;4996677;28;20200;-66
2021/07/22 12:15:23;;;;;;;4.50;4.15;;;28.20;93.90;;;;;;5001375;28;20275;-61
2021/07/22 12:17:48;;;;;;;6.22;4.63;;;28.20;93.10;;;;;;4997024;28;20216;-61
2021/07/22 12:20:14;;;;;;;5.22;4.72;;;28.10;95.50;;;;;;5003215;28;20185;-62
2021/07/22 12:22:40;;;;;;;7.18;4.82;;;28.10;94.90;;;;;;4999946;28;20707;-65
2021/07/22 12:25:06;;;;;;;6.82;4.50;;;28.40;92.20;;;;;;4990854;28;20193;-65
2021/07/22 12:27:36;;;;;;;5.28;4.82;;;28.10;94.10;;;;;;4992730;28;20545;-66
2021/07/22 12:30:05;;;;;;;5.60;5.00;;;28.10;92.50;;;;;;4993905;28;20165;-67
2021/07/22 12:32:31;;;;;;;5.22;4.72;;;27.90;93.70;;;;;;4993561;28;20185;-63
2021/07/22 12:34:57;;;;;;;5.30;4.80;;;27.80;96.00;;;;;;4989807;28;20228;-67
2021/07/22 12:37:52;;;;;;;5.03;4.50;;;28.30;93.90;;;;;;4994075;28;20181;-65
2021/07/22 12:40:18;;;;;;;5.65;4.82;;;28.50;93.40;;;;;;4991733;28;20177;-64
2021/07/22 12:42:57;;;;;;;5.05;4.55;;;28.60;91.70;;;;;;4993864;28;20212;-65
2021/07/22 12:45:23;;;;;;;5.57;4.97;;;28.80;90.40;;;;;;4991732;28;20188;-62